sensor_id;sensor_type;location;lat;lon;timestamp;P1;durP1;ratioP1;P2;durP2;ratioP2
59006;SDS011;44792;52.760;6.726;2023-06-14T00:01:52;4.50;;;1.90;;
59006;SDS011;44792;52.760;6.726;2023-06-14T00:04:18;3.60;;;2.10;;
59006;SDS011;44792;52.760;6.726;2023-06-14T00:06:45;4.38;;;1.80;;
59006;SDS011;44792;52.760;6.726;2023-06-14T00:09:12;5.13;;;2.00;;
59006;SDS011;44792;52.760;6.726;2023-06-14T00:11:38;3.72;;;2.22;;
59006;SDS011;44792;52.760;6.726;2023-06-14T00:14:05;4.82;;;1.83;;
59006;SDS011;44792;52.760;6.726;2023-06-14T00:16:31;4.15;;;2.10;;
59006;SDS011;44792;52.760;6.726;2023-06-14T00:18:58;4.78;;;2.30;;
59006;SDS011;44792;52.760;6.726;2023-06-14T00:21:24;2.67;;;1.80;;
59006;SDS011;44792;52.760;6.726;2023-06-14T00:23:50;2.83;;;1.80;;
59006;SDS011;44792;52.760;6.726;2023-06-14T00:26:18;4.25;;;1.73;;
59006;SDS011;44792;52.760;6.726;2023-06-14T00:28:44;4.75;;;2.00;;
59006;SDS011;44792;52.760;6.726;2023-06-14T00:31:10;2.80;;;1.98;;
59006;SDS011;44792;52.760;6.726;2023-06-14T00:33:35;2.55;;;1.90;;
59006;SDS011;44792;52.760;6.726;2023-06-14T00:36:01;3.05;;;1.90;;
59006;SDS011;44792;52.760;6.726;2023-06-14T00:38:27;3.90;;;2.15;;
59006;SDS011;44792;52.760;6.726;2023-06-14T00:40:53;7.88;;;2.30;;
59006;SDS011;44792;52.760;6.726;2023-06-14T00:43:18;7.18;;;1.90;;
59006;SDS011;44792;52.760;6.726;2023-06-14T00:45:44;3.20;;;2.05;;
59006;SDS011;44792;52.760;6.726;2023-06-14T00:48:10;3.97;;;1.70;;
59006;SDS011;44792;52.760;6.726;2023-06-14T00:50:36;5.18;;;1.77;;
59006;SDS011;44792;52.760;6.726;2023-06-14T00:53:06;5.22;;;2.10;;
59006;SDS011;44792;52.760;6.726;2023-06-14T00:55:32;4.32;;;1.80;;
59006;SDS011;44792;52.760;6.726;2023-06-14T00:57:58;4.57;;;1.88;;
59006;SDS011;44792;52.760;6.726;2023-06-14T01:00:25;5.97;;;2.05;;
59006;SDS011;44792;52.760;6.726;2023-06-14T01:02:51;6.13;;;2.10;;
59006;SDS011;44792;52.760;6.726;2023-06-14T01:05:16;2.45;;;1.50;;
59006;SDS011;44792;52.760;6.726;2023-06-14T01:13:27;4.47;;;1.85;;
59006;SDS011;44792;52.760;6.726;2023-06-14T01:15:58;3.13;;;1.88;;
59006;SDS011;44792;52.760;6.726;2023-06-14T01:18:24;4.28;;;2.10;;
59006;SDS011;44792;52.760;6.726;2023-06-14T01:20:52;4.13;;;1.60;;
59006;SDS011;44792;52.760;6.726;2023-06-14T01:23:23;4.55;;;1.92;;
59006;SDS011;44792;52.760;6.726;2023-06-14T01:25:50;2.13;;;1.52;;
59006;SDS011;44792;52.760;6.726;2023-06-14T01:28:20;2.08;;;1.70;;
59006;SDS011;44792;52.760;6.726;2023-06-14T01:30:47;5.18;;;1.80;;
59006;SDS011;44792;52.760;6.726;2023-06-14T01:33:24;5.68;;;2.10;;
59006;SDS011;44792;52.760;6.726;2023-06-14T01:35:53;4.35;;;1.60;;
59006;SDS011;44792;52.760;6.726;2023-06-14T01:38:24;3.13;;;1.92;;
59006;SDS011;44792;52.760;6.726;2023-06-14T01:40:51;4.32;;;1.80;;
59006;SDS011;44792;52.760;6.726;2023-06-14T01:43:20;9.23;;;2.55;;
59006;SDS011;44792;52.760;6.726;2023-06-14T01:45:47;3.17;;;1.88;;
59006;SDS011;44792;52.760;6.726;2023-06-14T01:48:15;3.22;;;1.95;;
59006;SDS011;44792;52.760;6.726;2023-06-14T01:50:41;2.47;;;1.85;;
59006;SDS011;44792;52.760;6.726;2023-06-14T01:53:07;3.03;;;2.05;;
59006;SDS011;44792;52.760;6.726;2023-06-14T01:55:34;4.78;;;2.00;;
59006;SDS011;44792;52.760;6.726;2023-06-14T01:58:02;3.65;;;2.10;;
59006;SDS011;44792;52.760;6.726;2023-06-14T02:00:29;6.47;;;2.08;;
59006;SDS011;44792;52.760;6.726;2023-06-14T02:02:54;4.70;;;2.17;;
59006;SDS011;44792;52.760;6.726;2023-06-14T02:05:21;9.35;;;2.42;;
59006;SDS011;44792;52.760;6.726;2023-06-14T02:07:47;3.60;;;2.28;;
59006;SDS011;44792;52.760;6.726;2023-06-14T02:10:13;1.98;;;1.60;;
59006;SDS011;44792;52.760;6.726;2023-06-14T02:12:39;2.25;;;1.90;;
59006;SDS011;44792;52.760;6.726;2023-06-14T02:15:05;3.88;;;2.10;;
59006;SDS011;44792;52.760;6.726;2023-06-14T02:17:32;5.82;;;2.00;;
59006;SDS011;44792;52.760;6.726;2023-06-14T02:19:58;3.15;;;1.75;;
59006;SDS011;44792;52.760;6.726;2023-06-14T02:22:24;3.78;;;2.03;;
59006;SDS011;44792;52.760;6.726;2023-06-14T02:24:53;4.47;;;2.25;;
59006;SDS011;44792;52.760;6.726;2023-06-14T02:27:18;5.45;;;2.03;;
59006;SDS011;44792;52.760;6.726;2023-06-14T02:29:44;6.20;;;2.65;;
59006;SDS011;44792;52.760;6.726;2023-06-14T02:32:10;2.88;;;1.95;;
59006;SDS011;44792;52.760;6.726;2023-06-14T02:34:36;5.35;;;2.25;;
59006;SDS011;44792;52.760;6.726;2023-06-14T02:37:02;2.67;;;2.22;;
59006;SDS011;44792;52.760;6.726;2023-06-14T02:39:28;4.43;;;2.08;;
59006;SDS011;44792;52.760;6.726;2023-06-14T02:41:54;5.30;;;2.38;;
59006;SDS011;44792;52.760;6.726;2023-06-14T02:44:24;3.15;;;2.20;;
59006;SDS011;44792;52.760;6.726;2023-06-14T02:46:52;2.30;;;1.80;;
59006;SDS011;44792;52.760;6.726;2023-06-14T02:49:21;3.33;;;2.20;;
59006;SDS011;44792;52.760;6.726;2023-06-14T02:51:47;5.75;;;2.15;;
59006;SDS011;44792;52.760;6.726;2023-06-14T02:54:13;6.47;;;2.15;;
59006;SDS011;44792;52.760;6.726;2023-06-14T02:56:39;5.63;;;2.05;;
59006;SDS011;44792;52.760;6.726;2023-06-14T02:59:05;3.60;;;1.98;;
59006;SDS011;44792;52.760;6.726;2023-06-14T03:01:32;5.70;;;2.33;;
59006;SDS011;44792;52.760;6.726;2023-06-14T03:04:06;4.53;;;2.50;;
59006;SDS011;44792;52.760;6.726;2023-06-14T03:06:33;5.20;;;2.00;;
59006;SDS011;44792;52.760;6.726;2023-06-14T03:08:59;3.55;;;2.28;;
59006;SDS011;44792;52.760;6.726;2023-06-14T03:11:26;3.28;;;2.13;;
59006;SDS011;44792;52.760;6.726;2023-06-14T03:13:52;4.70;;;1.88;;
59006;SDS011;44792;52.760;6.726;2023-06-14T03:16:18;2.65;;;2.03;;
59006;SDS011;44792;52.760;6.726;2023-06-14T03:18:45;3.08;;;2.10;;
59006;SDS011;44792;52.760;6.726;2023-06-14T03:21:11;2.85;;;2.05;;
59006;SDS011;44792;52.760;6.726;2023-06-14T03:23:37;2.72;;;2.35;;
59006;SDS011;44792;52.760;6.726;2023-06-14T03:26:02;4.13;;;2.03;;
59006;SDS011;44792;52.760;6.726;2023-06-14T03:28:28;3.13;;;2.28;;
59006;SDS011;44792;52.760;6.726;2023-06-14T03:30:54;4.82;;;2.35;;
59006;SDS011;44792;52.760;6.726;2023-06-14T03:33:19;2.63;;;2.28;;
59006;SDS011;44792;52.760;6.726;2023-06-14T03:35:46;3.70;;;2.42;;
59006;SDS011;44792;52.760;6.726;2023-06-14T03:38:11;4.95;;;2.33;;
59006;SDS011;44792;52.760;6.726;2023-06-14T03:40:37;3.45;;;2.13;;
59006;SDS011;44792;52.760;6.726;2023-06-14T03:43:06;5.18;;;2.47;;
59006;SDS011;44792;52.760;6.726;2023-06-14T03:45:31;8.35;;;2.80;;
59006;SDS011;44792;52.760;6.726;2023-06-14T03:47:57;5.03;;;2.50;;
59006;SDS011;44792;52.760;6.726;2023-06-14T03:50:25;3.85;;;2.20;;
59006;SDS011;44792;52.760;6.726;2023-06-14T03:52:52;6.93;;;2.20;;
59006;SDS011;44792;52.760;6.726;2023-06-14T03:55:18;7.82;;;2.08;;
59006;SDS011;44792;52.760;6.726;2023-06-14T03:57:44;3.95;;;2.08;;
59006;SDS011;44792;52.760;6.726;2023-06-14T04:00:10;3.15;;;2.13;;
59006;SDS011;44792;52.760;6.726;2023-06-14T04:02:37;3.80;;;2.20;;
59006;SDS011;44792;52.760;6.726;2023-06-14T04:05:03;6.15;;;2.47;;
59006;SDS011;44792;52.760;6.726;2023-06-14T04:07:33;7.80;;;2.38;;
59006;SDS011;44792;52.760;6.726;2023-06-14T04:10:05;5.53;;;2.38;;
59006;SDS011;44792;52.760;6.726;2023-06-14T04:12:32;4.60;;;2.65;;
59006;SDS011;44792;52.760;6.726;2023-06-14T04:14:58;4.55;;;2.30;;
59006;SDS011;44792;52.760;6.726;2023-06-14T04:17:24;6.25;;;2.40;;
59006;SDS011;44792;52.760;6.726;2023-06-14T04:19:49;3.78;;;2.33;;
59006;SDS011;44792;52.760;6.726;2023-06-14T04:22:15;4.97;;;2.83;;
59006;SDS011;44792;52.760;6.726;2023-06-14T04:24:41;6.50;;;2.55;;
59006;SDS011;44792;52.760;6.726;2023-06-14T04:27:07;4.95;;;3.10;;
59006;SDS011;44792;52.760;6.726;2023-06-14T04:29:33;3.22;;;2.35;;
59006;SDS011;44792;52.760;6.726;2023-06-14T04:31:59;3.05;;;2.42;;
59006;SDS011;44792;52.760;6.726;2023-06-14T04:34:25;4.50;;;2.45;;
59006;SDS011;44792;52.760;6.726;2023-06-14T04:36:57;3.95;;;2.35;;
59006;SDS011;44792;52.760;6.726;2023-06-14T04:39:24;4.25;;;2.42;;
59006;SDS011;44792;52.760;6.726;2023-06-14T04:41:51;3.03;;;2.17;;
59006;SDS011;44792;52.760;6.726;2023-06-14T04:44:18;3.47;;;2.45;;
59006;SDS011;44792;52.760;6.726;2023-06-14T04:46:45;3.95;;;2.65;;
59006;SDS011;44792;52.760;6.726;2023-06-14T04:49:17;2.58;;;2.33;;
59006;SDS011;44792;52.760;6.726;2023-06-14T04:51:43;3.67;;;2.30;;
59006;SDS011;44792;52.760;6.726;2023-06-14T04:54:12;4.50;;;2.80;;
59006;SDS011;44792;52.760;6.726;2023-06-14T04:56:41;3.17;;;2.13;;
59006;SDS011;44792;52.760;6.726;2023-06-14T04:59:10;3.47;;;2.20;;
59006;SDS011;44792;52.760;6.726;2023-06-14T05:01:40;5.10;;;2.22;;
59006;SDS011;44792;52.760;6.726;2023-06-14T05:04:05;3.95;;;2.25;;
59006;SDS011;44792;52.760;6.726;2023-06-14T05:06:31;4.18;;;2.50;;
59006;SDS011;44792;52.760;6.726;2023-06-14T05:08:58;3.75;;;2.38;;
59006;SDS011;44792;52.760;6.726;2023-06-14T05:11:23;4.10;;;2.28;;
59006;SDS011;44792;52.760;6.726;2023-06-14T05:13:49;4.15;;;2.10;;
59006;SDS011;44792;52.760;6.726;2023-06-14T05:16:16;4.93;;;2.08;;
59006;SDS011;44792;52.760;6.726;2023-06-14T05:18:44;3.25;;;2.35;;
59006;SDS011;44792;52.760;6.726;2023-06-14T05:21:12;6.55;;;2.22;;
59006;SDS011;44792;52.760;6.726;2023-06-14T05:23:38;6.43;;;2.80;;
59006;SDS011;44792;52.760;6.726;2023-06-14T05:26:04;3.92;;;2.15;;
59006;SDS011;44792;52.760;6.726;2023-06-14T05:28:31;4.15;;;2.50;;
59006;SDS011;44792;52.760;6.726;2023-06-14T05:30:57;5.07;;;2.60;;
59006;SDS011;44792;52.760;6.726;2023-06-14T05:33:23;3.10;;;2.25;;
59006;SDS011;44792;52.760;6.726;2023-06-14T05:35:49;3.65;;;2.13;;
59006;SDS011;44792;52.760;6.726;2023-06-14T05:38:15;6.10;;;2.20;;
59006;SDS011;44792;52.760;6.726;2023-06-14T05:40:40;3.22;;;2.15;;
59006;SDS011;44792;52.760;6.726;2023-06-14T05:43:06;7.57;;;2.30;;
59006;SDS011;44792;52.760;6.726;2023-06-14T05:45:32;7.70;;;2.53;;
59006;SDS011;44792;52.760;6.726;2023-06-14T05:47:57;12.45;;;2.35;;
59006;SDS011;44792;52.760;6.726;2023-06-14T05:50:23;2.80;;;2.13;;
59006;SDS011;44792;52.760;6.726;2023-06-14T05:52:49;4.30;;;2.30;;
59006;SDS011;44792;52.760;6.726;2023-06-14T05:55:15;9.05;;;2.40;;
59006;SDS011;44792;52.760;6.726;2023-06-14T05:57:42;2.92;;;2.00;;
59006;SDS011;44792;52.760;6.726;2023-06-14T06:00:08;3.25;;;2.22;;
59006;SDS011;44792;52.760;6.726;2023-06-14T06:02:42;4.07;;;2.17;;
59006;SDS011;44792;52.760;6.726;2023-06-14T06:05:12;6.15;;;2.35;;
59006;SDS011;44792;52.760;6.726;2023-06-14T06:07:38;5.45;;;1.85;;
59006;SDS011;44792;52.760;6.726;2023-06-14T06:10:10;3.55;;;1.98;;
59006;SDS011;44792;52.760;6.726;2023-06-14T06:12:36;5.35;;;2.13;;
59006;SDS011;44792;52.760;6.726;2023-06-14T06:15:02;8.15;;;2.50;;
59006;SDS011;44792;52.760;6.726;2023-06-14T06:17:29;3.58;;;2.10;;
59006;SDS011;44792;52.760;6.726;2023-06-14T06:19:54;2.92;;;2.03;;
59006;SDS011;44792;52.760;6.726;2023-06-14T06:22:20;2.92;;;1.77;;
59006;SDS011;44792;52.760;6.726;2023-06-14T06:24:46;4.35;;;2.30;;
59006;SDS011;44792;52.760;6.726;2023-06-14T06:27:12;2.53;;;2.00;;
59006;SDS011;44792;52.760;6.726;2023-06-14T06:29:38;2.15;;;1.92;;
59006;SDS011;44792;52.760;6.726;2023-06-14T06:32:07;10.45;;;2.03;;
59006;SDS011;44792;52.760;6.726;2023-06-14T06:34:33;3.70;;;2.05;;
59006;SDS011;44792;52.760;6.726;2023-06-14T06:36:58;3.30;;;2.10;;
59006;SDS011;44792;52.760;6.726;2023-06-14T06:39:24;3.85;;;1.95;;
59006;SDS011;44792;52.760;6.726;2023-06-14T06:41:50;4.00;;;2.20;;
59006;SDS011;44792;52.760;6.726;2023-06-14T06:44:16;3.22;;;1.88;;
59006;SDS011;44792;52.760;6.726;2023-06-14T06:46:43;5.68;;;1.83;;
59006;SDS011;44792;52.760;6.726;2023-06-14T06:49:09;3.92;;;2.00;;
59006;SDS011;44792;52.760;6.726;2023-06-14T06:51:37;4.13;;;2.00;;
59006;SDS011;44792;52.760;6.726;2023-06-14T06:54:07;4.07;;;2.28;;
59006;SDS011;44792;52.760;6.726;2023-06-14T06:56:33;2.75;;;1.83;;
59006;SDS011;44792;52.760;6.726;2023-06-14T06:58:59;2.45;;;1.90;;
59006;SDS011;44792;52.760;6.726;2023-06-14T07:01:25;5.22;;;2.28;;
59006;SDS011;44792;52.760;6.726;2023-06-14T07:03:51;3.30;;;1.65;;
59006;SDS011;44792;52.760;6.726;2023-06-14T07:06:17;5.50;;;1.85;;
59006;SDS011;44792;52.760;6.726;2023-06-14T07:08:44;3.53;;;1.90;;
59006;SDS011;44792;52.760;6.726;2023-06-14T07:11:10;2.80;;;1.50;;
59006;SDS011;44792;52.760;6.726;2023-06-14T07:13:35;1.83;;;1.48;;
59006;SDS011;44792;52.760;6.726;2023-06-14T07:16:01;3.35;;;1.90;;
59006;SDS011;44792;52.760;6.726;2023-06-14T07:18:29;2.22;;;1.80;;
59006;SDS011;44792;52.760;6.726;2023-06-14T07:20:56;3.33;;;2.03;;
59006;SDS011;44792;52.760;6.726;2023-06-14T07:23:22;5.13;;;1.80;;
59006;SDS011;44792;52.760;6.726;2023-06-14T07:25:48;2.25;;;2.03;;
59006;SDS011;44792;52.760;6.726;2023-06-14T07:28:14;3.63;;;1.77;;
59006;SDS011;44792;52.760;6.726;2023-06-14T07:30:41;3.97;;;1.60;;
59006;SDS011;44792;52.760;6.726;2023-06-14T07:33:06;2.58;;;1.70;;
59006;SDS011;44792;52.760;6.726;2023-06-14T07:35:33;3.78;;;1.73;;
59006;SDS011;44792;52.760;6.726;2023-06-14T07:37:59;2.60;;;1.70;;
59006;SDS011;44792;52.760;6.726;2023-06-14T07:40:25;3.17;;;2.10;;
59006;SDS011;44792;52.760;6.726;2023-06-14T07:42:50;3.45;;;1.60;;
59006;SDS011;44792;52.760;6.726;2023-06-14T07:45:16;3.60;;;1.77;;
59006;SDS011;44792;52.760;6.726;2023-06-14T07:47:43;3.38;;;1.90;;
59006;SDS011;44792;52.760;6.726;2023-06-14T07:50:09;5.35;;;1.70;;
59006;SDS011;44792;52.760;6.726;2023-06-14T07:52:35;2.88;;;1.90;;
59006;SDS011;44792;52.760;6.726;2023-06-14T07:55:00;4.28;;;1.88;;
59006;SDS011;44792;52.760;6.726;2023-06-14T07:57:26;3.33;;;1.80;;
59006;SDS011;44792;52.760;6.726;2023-06-14T07:59:52;3.20;;;1.80;;
59006;SDS011;44792;52.760;6.726;2023-06-14T08:02:18;2.35;;;1.80;;
59006;SDS011;44792;52.760;6.726;2023-06-14T08:04:43;3.67;;;2.00;;
59006;SDS011;44792;52.760;6.726;2023-06-14T08:07:09;5.10;;;1.92;;
59006;SDS011;44792;52.760;6.726;2023-06-14T08:09:35;3.15;;;1.63;;
59006;SDS011;44792;52.760;6.726;2023-06-14T08:12:05;2.25;;;1.48;;
59006;SDS011;44792;52.760;6.726;2023-06-14T08:14:39;4.75;;;1.67;;
59006;SDS011;44792;52.760;6.726;2023-06-14T08:17:05;5.43;;;1.67;;
59006;SDS011;44792;52.760;6.726;2023-06-14T08:19:30;1.90;;;1.45;;
59006;SDS011;44792;52.760;6.726;2023-06-14T08:21:56;2.72;;;1.73;;
59006;SDS011;44792;52.760;6.726;2023-06-14T08:24:22;2.20;;;1.70;;
59006;SDS011;44792;52.760;6.726;2023-06-14T08:26:52;1.63;;;1.50;;
59006;SDS011;44792;52.760;6.726;2023-06-14T08:29:18;3.35;;;1.60;;
59006;SDS011;44792;52.760;6.726;2023-06-14T08:31:44;2.05;;;1.30;;
59006;SDS011;44792;52.760;6.726;2023-06-14T08:34:10;4.93;;;1.58;;
59006;SDS011;44792;52.760;6.726;2023-06-14T08:36:36;2.75;;;1.73;;
59006;SDS011;44792;52.760;6.726;2023-06-14T08:39:02;2.85;;;1.00;;
59006;SDS011;44792;52.760;6.726;2023-06-14T08:41:28;1.77;;;1.45;;
59006;SDS011;44792;52.760;6.726;2023-06-14T08:43:54;3.10;;;1.40;;
59006;SDS011;44792;52.760;6.726;2023-06-14T08:46:25;3.45;;;1.50;;
59006;SDS011;44792;52.760;6.726;2023-06-14T08:48:52;2.13;;;1.40;;
59006;SDS011;44792;52.760;6.726;2023-06-14T08:51:24;1.88;;;1.40;;
59006;SDS011;44792;52.760;6.726;2023-06-14T08:53:53;2.95;;;1.50;;
59006;SDS011;44792;52.760;6.726;2023-06-14T08:56:26;1.70;;;1.27;;
59006;SDS011;44792;52.760;6.726;2023-06-14T08:58:53;1.42;;;1.20;;
59006;SDS011;44792;52.760;6.726;2023-06-14T09:01:19;1.73;;;1.23;;
59006;SDS011;44792;52.760;6.726;2023-06-14T09:03:46;2.47;;;1.42;;
59006;SDS011;44792;52.760;6.726;2023-06-14T09:06:13;1.35;;;1.25;;
59006;SDS011;44792;52.760;6.726;2023-06-14T09:08:43;1.88;;;1.40;;
59006;SDS011;44792;52.760;6.726;2023-06-14T09:11:11;2.70;;;1.27;;
59006;SDS011;44792;52.760;6.726;2023-06-14T09:13:39;3.25;;;1.40;;
59006;SDS011;44792;52.760;6.726;2023-06-14T09:16:06;2.42;;;1.27;;
59006;SDS011;44792;52.760;6.726;2023-06-14T09:18:35;1.58;;;1.10;;
59006;SDS011;44792;52.760;6.726;2023-06-14T09:21:02;1.48;;;1.13;;
59006;SDS011;44792;52.760;6.726;2023-06-14T09:23:28;1.45;;;1.20;;
59006;SDS011;44792;52.760;6.726;2023-06-14T09:25:54;2.78;;;1.92;;
59006;SDS011;44792;52.760;6.726;2023-06-14T09:28:19;2.33;;;1.20;;
59006;SDS011;44792;52.760;6.726;2023-06-14T09:30:47;2.03;;;1.20;;
59006;SDS011;44792;52.760;6.726;2023-06-14T09:33:17;1.90;;;1.10;;
59006;SDS011;44792;52.760;6.726;2023-06-14T09:35:45;1.42;;;1.02;;
59006;SDS011;44792;52.760;6.726;2023-06-14T09:38:11;2.47;;;1.23;;
59006;SDS011;44792;52.760;6.726;2023-06-14T09:40:37;2.85;;;1.38;;
59006;SDS011;44792;52.760;6.726;2023-06-14T09:43:06;1.58;;;1.23;;
59006;SDS011;44792;52.760;6.726;2023-06-14T09:45:35;3.05;;;1.27;;
59006;SDS011;44792;52.760;6.726;2023-06-14T09:48:01;4.55;;;1.75;;
59006;SDS011;44792;52.760;6.726;2023-06-14T09:50:28;5.60;;;1.25;;
59006;SDS011;44792;52.760;6.726;2023-06-14T09:52:53;2.97;;;1.25;;
59006;SDS011;44792;52.760;6.726;2023-06-14T09:55:27;1.60;;;1.20;;
59006;SDS011;44792;52.760;6.726;2023-06-14T09:57:55;2.17;;;1.25;;
59006;SDS011;44792;52.760;6.726;2023-06-14T10:00:25;4.10;;;1.15;;
59006;SDS011;44792;52.760;6.726;2023-06-14T10:02:53;8.18;;;1.40;;
59006;SDS011;44792;52.760;6.726;2023-06-14T10:05:26;2.33;;;1.23;;
59006;SDS011;44792;52.760;6.726;2023-06-14T10:07:59;2.10;;;1.30;;
59006;SDS011;44792;52.760;6.726;2023-06-14T10:10:29;2.95;;;1.08;;
59006;SDS011;44792;52.760;6.726;2023-06-14T10:12:55;1.40;;;1.30;;
59006;SDS011;44792;52.760;6.726;2023-06-14T10:20:49;3.22;;;1.20;;
59006;SDS011;44792;52.760;6.726;2023-06-14T10:23:22;1.73;;;1.48;;
59006;SDS011;44792;52.760;6.726;2023-06-14T10:25:50;2.50;;;1.33;;
59006;SDS011;44792;52.760;6.726;2023-06-14T10:28:21;1.17;;;1.08;;
59006;SDS011;44792;52.760;6.726;2023-06-14T10:36:26;2.33;;;1.20;;
59006;SDS011;44792;52.760;6.726;2023-06-14T10:41:28;2.35;;;1.40;;
59006;SDS011;44792;52.760;6.726;2023-06-14T10:46:39;4.35;;;1.48;;
59006;SDS011;44792;52.760;6.726;2023-06-14T10:49:05;3.28;;;1.17;;
59006;SDS011;44792;52.760;6.726;2023-06-14T10:51:38;3.85;;;1.33;;
59006;SDS011;44792;52.760;6.726;2023-06-14T10:54:12;1.38;;;1.27;;
59006;SDS011;44792;52.760;6.726;2023-06-14T10:56:45;1.98;;;1.42;;
59006;SDS011;44792;52.760;6.726;2023-06-14T10:59:16;2.22;;;1.00;;
59006;SDS011;44792;52.760;6.726;2023-06-14T11:04:17;3.22;;;1.40;;
59006;SDS011;44792;52.760;6.726;2023-06-14T11:11:57;2.63;;;1.33;;
59006;SDS011;44792;52.760;6.726;2023-06-14T11:14:24;3.72;;;1.42;;
59006;SDS011;44792;52.760;6.726;2023-06-14T11:16:50;3.63;;;1.10;;
59006;SDS011;44792;52.760;6.726;2023-06-14T11:19:16;2.92;;;1.35;;
59006;SDS011;44792;52.760;6.726;2023-06-14T11:21:46;2.42;;;1.10;;
59006;SDS011;44792;52.760;6.726;2023-06-14T11:24:13;5.78;;;1.15;;
59006;SDS011;44792;52.760;6.726;2023-06-14T11:26:39;2.08;;;1.30;;
59006;SDS011;44792;52.760;6.726;2023-06-14T11:29:06;2.53;;;1.08;;
59006;SDS011;44792;52.760;6.726;2023-06-14T11:31:31;2.60;;;1.30;;
59006;SDS011;44792;52.760;6.726;2023-06-14T11:34:00;1.95;;;1.10;;
59006;SDS011;44792;52.760;6.726;2023-06-14T11:36:26;2.95;;;1.30;;
59006;SDS011;44792;52.760;6.726;2023-06-14T11:39:01;2.22;;;1.00;;
59006;SDS011;44792;52.760;6.726;2023-06-14T11:41:32;2.65;;;1.20;;
59006;SDS011;44792;52.760;6.726;2023-06-14T11:44:00;1.83;;;1.00;;
59006;SDS011;44792;52.760;6.726;2023-06-14T11:46:27;2.10;;;1.40;;
59006;SDS011;44792;52.760;6.726;2023-06-14T11:48:53;4.93;;;1.50;;
59006;SDS011;44792;52.760;6.726;2023-06-14T11:51:19;2.83;;;1.20;;
59006;SDS011;44792;52.760;6.726;2023-06-14T11:53:45;1.60;;;1.10;;
59006;SDS011;44792;52.760;6.726;2023-06-14T11:56:12;1.88;;;1.45;;
59006;SDS011;44792;52.760;6.726;2023-06-14T11:58:38;2.80;;;1.25;;
59006;SDS011;44792;52.760;6.726;2023-06-14T12:01:04;1.83;;;1.10;;
59006;SDS011;44792;52.760;6.726;2023-06-14T12:03:29;1.75;;;1.40;;
59006;SDS011;44792;52.760;6.726;2023-06-14T12:06:03;7.22;;;1.50;;
59006;SDS011;44792;52.760;6.726;2023-06-14T12:08:36;3.88;;;1.60;;
59006;SDS011;44792;52.760;6.726;2023-06-14T12:11:12;2.22;;;1.30;;
59006;SDS011;44792;52.760;6.726;2023-06-14T12:13:39;1.42;;;1.20;;
59006;SDS011;44792;52.760;6.726;2023-06-14T12:16:06;2.67;;;1.50;;
59006;SDS011;44792;52.760;6.726;2023-06-14T12:18:34;2.00;;;1.30;;
59006;SDS011;44792;52.760;6.726;2023-06-14T12:21:05;2.20;;;1.70;;
59006;SDS011;44792;52.760;6.726;2023-06-14T12:26:12;3.60;;;1.42;;
59006;SDS011;44792;52.760;6.726;2023-06-14T12:28:42;2.80;;;1.08;;
59006;SDS011;44792;52.760;6.726;2023-06-14T12:31:10;1.70;;;1.30;;
59006;SDS011;44792;52.760;6.726;2023-06-14T12:33:38;3.65;;;1.52;;
59006;SDS011;44792;52.760;6.726;2023-06-14T12:36:04;2.00;;;1.48;;
59006;SDS011;44792;52.760;6.726;2023-06-14T12:38:35;1.50;;;1.27;;
59006;SDS011;44792;52.760;6.726;2023-06-14T12:41:01;3.50;;;1.50;;
59006;SDS011;44792;52.760;6.726;2023-06-14T12:43:27;1.45;;;1.30;;
59006;SDS011;44792;52.760;6.726;2023-06-14T12:45:53;1.63;;;1.10;;
59006;SDS011;44792;52.760;6.726;2023-06-14T12:48:19;2.88;;;1.58;;
59006;SDS011;44792;52.760;6.726;2023-06-14T12:50:45;1.73;;;1.33;;
59006;SDS011;44792;52.760;6.726;2023-06-14T12:53:11;2.03;;;1.40;;
59006;SDS011;44792;52.760;6.726;2023-06-14T12:55:37;1.40;;;1.30;;
59006;SDS011;44792;52.760;6.726;2023-06-14T12:58:03;4.15;;;1.60;;
59006;SDS011;44792;52.760;6.726;2023-06-14T13:00:29;2.25;;;1.60;;
59006;SDS011;44792;52.760;6.726;2023-06-14T13:02:55;2.45;;;1.23;;
59006;SDS011;44792;52.760;6.726;2023-06-14T13:05:22;3.65;;;1.48;;
59006;SDS011;44792;52.760;6.726;2023-06-14T13:07:48;3.25;;;1.45;;
59006;SDS011;44792;52.760;6.726;2023-06-14T13:10:15;2.15;;;1.52;;
59006;SDS011;44792;52.760;6.726;2023-06-14T13:12:42;3.10;;;1.60;;
59006;SDS011;44792;52.760;6.726;2023-06-14T13:15:08;3.13;;;1.23;;
59006;SDS011;44792;52.760;6.726;2023-06-14T13:17:34;2.35;;;1.33;;
59006;SDS011;44792;52.760;6.726;2023-06-14T13:20:06;2.25;;;1.25;;
59006;SDS011;44792;52.760;6.726;2023-06-14T13:22:33;3.28;;;1.60;;
59006;SDS011;44792;52.760;6.726;2023-06-14T13:25:00;2.40;;;1.20;;
59006;SDS011;44792;52.760;6.726;2023-06-14T13:27:26;2.30;;;0.98;;
59006;SDS011;44792;52.760;6.726;2023-06-14T13:29:52;1.63;;;1.33;;
59006;SDS011;44792;52.760;6.726;2023-06-14T13:32:20;1.15;;;1.05;;
59006;SDS011;44792;52.760;6.726;2023-06-14T13:34:46;1.77;;;1.38;;
59006;SDS011;44792;52.760;6.726;2023-06-14T13:37:12;2.03;;;1.27;;
59006;SDS011;44792;52.760;6.726;2023-06-14T13:39:38;1.60;;;1.27;;
59006;SDS011;44792;52.760;6.726;2023-06-14T13:42:07;2.03;;;1.27;;
59006;SDS011;44792;52.760;6.726;2023-06-14T13:44:33;3.10;;;1.33;;
59006;SDS011;44792;52.760;6.726;2023-06-14T13:46:59;2.40;;;1.60;;
59006;SDS011;44792;52.760;6.726;2023-06-14T13:49:25;5.10;;;1.50;;
59006;SDS011;44792;52.760;6.726;2023-06-14T13:51:50;4.10;;;1.20;;
59006;SDS011;44792;52.760;6.726;2023-06-14T13:54:18;2.17;;;1.30;;
59006;SDS011;44792;52.760;6.726;2023-06-14T13:56:46;2.42;;;1.08;;
59006;SDS011;44792;52.760;6.726;2023-06-14T13:59:12;2.95;;;1.30;;
59006;SDS011;44792;52.760;6.726;2023-06-14T14:01:38;1.42;;;1.10;;
59006;SDS011;44792;52.760;6.726;2023-06-14T14:04:04;4.70;;;1.45;;
59006;SDS011;44792;52.760;6.726;2023-06-14T14:06:30;1.70;;;1.30;;
59006;SDS011;44792;52.760;6.726;2023-06-14T14:08:56;1.00;;;0.90;;
59006;SDS011;44792;52.760;6.726;2023-06-14T14:11:22;1.52;;;1.30;;
59006;SDS011;44792;52.760;6.726;2023-06-14T14:13:48;2.58;;;1.33;;
59006;SDS011;44792;52.760;6.726;2023-06-14T14:16:14;2.92;;;1.58;;
59006;SDS011;44792;52.760;6.726;2023-06-14T14:18:40;1.52;;;1.08;;
59006;SDS011;44792;52.760;6.726;2023-06-14T14:21:06;1.40;;;1.30;;
59006;SDS011;44792;52.760;6.726;2023-06-14T14:23:31;4.22;;;1.40;;
59006;SDS011;44792;52.760;6.726;2023-06-14T14:25:57;3.25;;;1.77;;
59006;SDS011;44792;52.760;6.726;2023-06-14T14:28:23;3.13;;;1.27;;
59006;SDS011;44792;52.760;6.726;2023-06-14T14:30:49;2.20;;;1.33;;
59006;SDS011;44792;52.760;6.726;2023-06-14T14:33:15;2.55;;;1.38;;
59006;SDS011;44792;52.760;6.726;2023-06-14T14:35:42;3.53;;;1.17;;
59006;SDS011;44792;52.760;6.726;2023-06-14T14:38:11;1.75;;;1.17;;
59006;SDS011;44792;52.760;6.726;2023-06-14T14:40:37;1.23;;;1.02;;
59006;SDS011;44792;52.760;6.726;2023-06-14T14:43:02;2.67;;;1.10;;
59006;SDS011;44792;52.760;6.726;2023-06-14T14:45:28;1.10;;;1.00;;
59006;SDS011;44792;52.760;6.726;2023-06-14T14:47:54;1.90;;;1.30;;
59006;SDS011;44792;52.760;6.726;2023-06-14T14:50:20;1.50;;;1.40;;
59006;SDS011;44792;52.760;6.726;2023-06-14T14:52:45;2.08;;;1.10;;
59006;SDS011;44792;52.760;6.726;2023-06-14T14:55:11;1.45;;;1.30;;
59006;SDS011;44792;52.760;6.726;2023-06-14T14:57:37;1.33;;;1.23;;
59006;SDS011;44792;52.760;6.726;2023-06-14T15:00:03;2.40;;;1.40;;
59006;SDS011;44792;52.760;6.726;2023-06-14T15:02:30;1.50;;;1.40;;
59006;SDS011;44792;52.760;6.726;2023-06-14T15:04:56;1.50;;;1.40;;
59006;SDS011;44792;52.760;6.726;2023-06-14T15:07:29;2.63;;;1.40;;
59006;SDS011;44792;52.760;6.726;2023-06-14T15:09:56;1.48;;;1.30;;
59006;SDS011;44792;52.760;6.726;2023-06-14T15:12:22;3.05;;;1.52;;
59006;SDS011;44792;52.760;6.726;2023-06-14T15:14:51;3.38;;;1.73;;
59006;SDS011;44792;52.760;6.726;2023-06-14T15:17:21;2.60;;;1.55;;
59006;SDS011;44792;52.760;6.726;2023-06-14T15:19:47;3.40;;;1.35;;